Aviation Digital Data Service (ADDS)

Output produced by METARs form (2240 UTC 21 May 2022)
found at http://www.aviationweather.gov/metar/data/
 
BKPR 212230Z VRB02KT CAVOK 18/11 Q1016 NOSIG
TAF BKPR 211730Z 2118/2218 36007KT 9999 FEW040 SCT090 
     PROB30 
     TEMPO 2210/2218 VRB15G25KT 4000 SHRA SCT025CB